sensor_id;sensor_type;location;lat;lon;timestamp;pressure;altitude;pressure_sealevel;temperature;humidity
37856;BME280;23694;43.274;26.924;2022-07-23T00:00:03;98943.75;;;23.71;39.83
37856;BME280;23694;43.274;26.924;2022-07-23T00:02:29;98939.44;;;23.70;39.82
37856;BME280;23694;43.274;26.924;2022-07-23T00:04:55;98947.91;;;23.74;39.97
37856;BME280;23694;43.274;26.924;2022-07-23T00:07:21;98946.19;;;23.66;40.02
37856;BME280;23694;43.274;26.924;2022-07-23T00:09:47;98945.84;;;23.55;40.18
37856;BME280;23694;43.274;26.924;2022-07-23T00:12:13;98947.38;;;23.49;40.06
37856;BME280;23694;43.274;26.924;2022-07-23T00:14:39;98938.63;;;23.40;40.40
37856;BME280;23694;43.274;26.924;2022-07-23T00:17:06;98947.19;;;23.36;40.42
37856;BME280;23694;43.274;26.924;2022-07-23T00:19:32;98950.59;;;23.30;40.62
37856;BME280;23694;43.274;26.924;2022-07-23T00:21:58;98949.22;;;23.34;40.58
37856;BME280;23694;43.274;26.924;2022-07-23T00:24:24;98948.22;;;23.35;40.62
37856;BME280;23694;43.274;26.924;2022-07-23T00:26:50;98944.06;;;23.32;40.61
37856;BME280;23694;43.274;26.924;2022-07-23T00:29:16;98943.59;;;23.29;41.00
37856;BME280;23694;43.274;26.924;2022-07-23T00:31:42;98946.47;;;23.27;40.85
37856;BME280;23694;43.274;26.924;2022-07-23T00:34:09;98942.78;;;23.28;40.74
37856;BME280;23694;43.274;26.924;2022-07-23T00:36:35;98942.88;;;23.20;40.74
37856;BME280;23694;43.274;26.924;2022-07-23T00:39:01;98943.06;;;23.19;41.16
37856;BME280;23694;43.274;26.924;2022-07-23T00:41:27;98939.75;;;23.17;40.82
37856;BME280;23694;43.274;26.924;2022-07-23T00:43:53;98938.19;;;23.07;41.02
37856;BME280;23694;43.274;26.924;2022-07-23T00:46:20;98943.16;;;23.11;40.90
37856;BME280;23694;43.274;26.924;2022-07-23T00:48:47;98942.69;;;23.07;40.94
37856;BME280;23694;43.274;26.924;2022-07-23T00:51:15;98944.34;;;23.08;40.90
37856;BME280;23694;43.274;26.924;2022-07-23T00:53:42;98941.88;;;23.06;40.95
37856;BME280;23694;43.274;26.924;2022-07-23T00:56:08;98942.06;;;23.05;40.93
37856;BME280;23694;43.274;26.924;2022-07-23T00:58:35;98936.63;;;22.98;40.87
37856;BME280;23694;43.274;26.924;2022-07-23T01:01:01;98939.13;;;23.00;41.14
37856;BME280;23694;43.274;26.924;2022-07-23T01:03:28;98937.44;;;22.99;40.90
37856;BME280;23694;43.274;26.924;2022-07-23T01:05:54;98938.84;;;22.95;40.82
37856;BME280;23694;43.274;26.924;2022-07-23T01:08:20;98945.38;;;22.92;40.71
37856;BME280;23694;43.274;26.924;2022-07-23T01:10:48;98940.94;;;22.85;41.07
37856;BME280;23694;43.274;26.924;2022-07-23T01:13:14;98936.66;;;22.75;41.56
37856;BME280;23694;43.274;26.924;2022-07-23T01:15:40;98945.03;;;22.72;41.75
37856;BME280;23694;43.274;26.924;2022-07-23T01:18:07;98939.41;;;22.67;41.66
37856;BME280;23694;43.274;26.924;2022-07-23T01:20:34;98926.50;;;22.71;41.29
37856;BME280;23694;43.274;26.924;2022-07-23T01:23:00;98929.19;;;22.71;41.09
37856;BME280;23694;43.274;26.924;2022-07-23T01:25:27;98930.00;;;22.71;41.41
37856;BME280;23694;43.274;26.924;2022-07-23T01:27:53;98930.31;;;22.76;41.35
37856;BME280;23694;43.274;26.924;2022-07-23T01:30:19;98933.31;;;22.73;41.28
37856;BME280;23694;43.274;26.924;2022-07-23T01:32:46;98929.81;;;22.73;41.24
37856;BME280;23694;43.274;26.924;2022-07-23T01:35:12;98929.38;;;22.69;41.32
37856;BME280;23694;43.274;26.924;2022-07-23T01:37:38;98922.38;;;22.68;41.23
37856;BME280;23694;43.274;26.924;2022-07-23T01:40:05;98921.53;;;22.68;41.36
37856;BME280;23694;43.274;26.924;2022-07-23T01:42:32;98925.94;;;22.61;41.40
37856;BME280;23694;43.274;26.924;2022-07-23T01:44:58;98918.94;;;22.60;41.22
37856;BME280;23694;43.274;26.924;2022-07-23T01:47:24;98916.38;;;22.52;41.69
37856;BME280;23694;43.274;26.924;2022-07-23T01:49:51;98920.59;;;22.46;41.80
37856;BME280;23694;43.274;26.924;2022-07-23T01:52:17;98919.22;;;22.50;41.56
37856;BME280;23694;43.274;26.924;2022-07-23T01:54:43;98918.56;;;22.48;41.59
37856;BME280;23694;43.274;26.924;2022-07-23T01:57:09;98917.84;;;22.54;41.67
37856;BME280;23694;43.274;26.924;2022-07-23T01:59:35;98919.41;;;22.49;41.51
37856;BME280;23694;43.274;26.924;2022-07-23T02:02:02;98920.03;;;22.51;41.37
37856;BME280;23694;43.274;26.924;2022-07-23T02:04:29;98915.53;;;22.51;41.62
37856;BME280;23694;43.274;26.924;2022-07-23T02:06:55;98923.66;;;22.58;41.26
37856;BME280;23694;43.274;26.924;2022-07-23T02:09:21;98920.16;;;22.57;41.43
37856;BME280;23694;43.274;26.924;2022-07-23T02:11:49;98926.69;;;22.55;41.43
37856;BME280;23694;43.274;26.924;2022-07-23T02:14:15;98918.56;;;22.48;41.56
37856;BME280;23694;43.274;26.924;2022-07-23T02:16:41;98919.22;;;22.50;41.69
37856;BME280;23694;43.274;26.924;2022-07-23T02:19:07;98925.75;;;22.48;41.64
37856;BME280;23694;43.274;26.924;2022-07-23T02:21:33;98924.53;;;22.35;41.80
37856;BME280;23694;43.274;26.924;2022-07-23T02:23:59;98928.84;;;22.36;41.96
37856;BME280;23694;43.274;26.924;2022-07-23T02:26:25;98922.50;;;22.37;41.70
37856;BME280;23694;43.274;26.924;2022-07-23T02:28:51;98926.47;;;22.41;41.83
37856;BME280;23694;43.274;26.924;2022-07-23T02:31:19;98928.03;;;22.36;41.86
37856;BME280;23694;43.274;26.924;2022-07-23T02:33:45;98929.13;;;22.41;41.75
37856;BME280;23694;43.274;26.924;2022-07-23T02:36:11;98930.03;;;22.34;41.80
37856;BME280;23694;43.274;26.924;2022-07-23T02:38:37;98927.66;;;22.39;41.58
37856;BME280;23694;43.274;26.924;2022-07-23T02:41:03;98928.13;;;22.42;41.64
37856;BME280;23694;43.274;26.924;2022-07-23T02:43:29;98926.66;;;22.40;41.58
37856;BME280;23694;43.274;26.924;2022-07-23T02:45:55;98920.84;;;22.36;41.79
37856;BME280;23694;43.274;26.924;2022-07-23T02:48:21;98926.84;;;22.38;41.86
37856;BME280;23694;43.274;26.924;2022-07-23T02:50:47;98927.19;;;22.35;41.92
37856;BME280;23694;43.274;26.924;2022-07-23T02:53:13;98919.84;;;22.37;41.80
37856;BME280;23694;43.274;26.924;2022-07-23T02:55:39;98927.47;;;22.40;41.82
37856;BME280;23694;43.274;26.924;2022-07-23T02:58:06;98923.16;;;22.39;41.77
37856;BME280;23694;43.274;26.924;2022-07-23T03:00:32;98926.94;;;22.45;41.50
37856;BME280;23694;43.274;26.924;2022-07-23T03:02:58;98930.06;;;22.49;41.47
37856;BME280;23694;43.274;26.924;2022-07-23T03:05:24;98933.09;;;22.45;41.54
37856;BME280;23694;43.274;26.924;2022-07-23T03:07:50;98932.38;;;22.52;41.39
37856;BME280;23694;43.274;26.924;2022-07-23T03:10:16;98927.59;;;22.62;41.16
37856;BME280;23694;43.274;26.924;2022-07-23T03:12:42;98935.91;;;22.67;40.97
37856;BME280;23694;43.274;26.924;2022-07-23T03:15:09;98941.00;;;22.76;40.72
37856;BME280;23694;43.274;26.924;2022-07-23T03:17:35;98942.53;;;22.94;40.27
37856;BME280;23694;43.274;26.924;2022-07-23T03:20:01;98937.16;;;23.08;40.11
37856;BME280;23694;43.274;26.924;2022-07-23T03:22:27;98944.72;;;23.20;39.75
37856;BME280;23694;43.274;26.924;2022-07-23T03:24:53;98939.00;;;23.37;39.48
37856;BME280;23694;43.274;26.924;2022-07-23T03:27:26;98946.94;;;23.46;39.46
37856;BME280;23694;43.274;26.924;2022-07-23T03:29:54;98951.34;;;23.68;39.03
37856;BME280;23694;43.274;26.924;2022-07-23T03:32:20;98949.97;;;23.93;38.58
37856;BME280;23694;43.274;26.924;2022-07-23T03:34:47;98945.84;;;24.12;38.28
37856;BME280;23694;43.274;26.924;2022-07-23T03:37:13;98955.13;;;24.31;37.84
37856;BME280;23694;43.274;26.924;2022-07-23T03:39:39;98951.28;;;24.40;37.83
37856;BME280;23694;43.274;26.924;2022-07-23T03:42:06;98962.53;;;24.57;37.89
37856;BME280;23694;43.274;26.924;2022-07-23T03:44:33;98955.31;;;24.79;37.20
37856;BME280;23694;43.274;26.924;2022-07-23T03:46:59;98966.03;;;25.07;36.54
37856;BME280;23694;43.274;26.924;2022-07-23T03:49:25;98960.19;;;25.31;36.76
37856;BME280;23694;43.274;26.924;2022-07-23T03:51:51;98955.38;;;25.54;35.82
37856;BME280;23694;43.274;26.924;2022-07-23T03:54:17;98947.84;;;25.84;35.64
37856;BME280;23694;43.274;26.924;2022-07-23T03:56:44;98951.88;;;26.21;35.03
37856;BME280;23694;43.274;26.924;2022-07-23T03:59:10;98942.19;;;26.53;34.46
37856;BME280;23694;43.274;26.924;2022-07-23T04:01:36;98950.06;;;26.81;34.04
37856;BME280;23694;43.274;26.924;2022-07-23T04:04:02;98957.25;;;27.07;34.04
37856;BME280;23694;43.274;26.924;2022-07-23T04:06:29;98951.00;;;27.33;34.01
37856;BME280;23694;43.274;26.924;2022-07-23T04:08:55;98955.69;;;27.51;34.81
37856;BME280;23694;43.274;26.924;2022-07-23T04:11:21;98961.56;;;27.35;35.93
37856;BME280;23694;43.274;26.924;2022-07-23T04:13:47;98965.13;;;26.96;36.96
37856;BME280;23694;43.274;26.924;2022-07-23T04:16:13;98967.19;;;26.87;37.03
37856;BME280;23694;43.274;26.924;2022-07-23T04:18:39;98969.88;;;26.61;37.81
37856;BME280;23694;43.274;26.924;2022-07-23T04:21:05;98975.47;;;26.52;37.42
37856;BME280;23694;43.274;26.924;2022-07-23T04:23:31;98969.06;;;26.73;36.99
37856;BME280;23694;43.274;26.924;2022-07-23T04:25:57;98972.56;;;27.07;36.22
37856;BME280;23694;43.274;26.924;2022-07-23T04:28:24;98975.63;;;27.24;35.66
37856;BME280;23694;43.274;26.924;2022-07-23T04:30:50;98978.47;;;27.48;35.39
37856;BME280;23694;43.274;26.924;2022-07-23T04:33:16;98979.31;;;28.00;34.43
37856;BME280;23694;43.274;26.924;2022-07-23T04:35:42;98981.00;;;28.33;34.24
37856;BME280;23694;43.274;26.924;2022-07-23T04:38:08;98986.56;;;29.13;32.65
37856;BME280;23694;43.274;26.924;2022-07-23T04:40:34;98974.56;;;29.52;32.14
37856;BME280;23694;43.274;26.924;2022-07-23T04:43:00;98977.66;;;29.85;31.49
37856;BME280;23694;43.274;26.924;2022-07-23T04:45:26;98982.78;;;30.23;31.09
37856;BME280;23694;43.274;26.924;2022-07-23T04:47:52;98976.91;;;30.68;30.24
37856;BME280;23694;43.274;26.924;2022-07-23T04:50:19;98975.97;;;30.98;29.42
37856;BME280;23694;43.274;26.924;2022-07-23T04:52:48;98979.97;;;31.42;28.59
37856;BME280;23694;43.274;26.924;2022-07-23T04:55:14;98976.44;;;32.22;27.98
37856;BME280;23694;43.274;26.924;2022-07-23T04:57:41;98982.91;;;32.99;26.96
37856;BME280;23694;43.274;26.924;2022-07-23T05:00:08;98984.28;;;33.57;26.49
37856;BME280;23694;43.274;26.924;2022-07-23T05:02:34;98988.22;;;34.15;25.27
37856;BME280;23694;43.274;26.924;2022-07-23T05:05:01;98986.19;;;34.27;24.98
37856;BME280;23694;43.274;26.924;2022-07-23T05:07:27;98979.97;;;34.59;24.28
37856;BME280;23694;43.274;26.924;2022-07-23T05:09:53;98984.09;;;34.99;23.73
37856;BME280;23694;43.274;26.924;2022-07-23T05:12:19;98983.06;;;35.10;23.84
37856;BME280;23694;43.274;26.924;2022-07-23T05:14:45;98990.72;;;35.60;22.80
37856;BME280;23694;43.274;26.924;2022-07-23T05:17:11;98988.44;;;35.89;22.69
37856;BME280;23694;43.274;26.924;2022-07-23T05:19:37;98991.16;;;35.94;22.44
37856;BME280;23694;43.274;26.924;2022-07-23T05:22:03;98986.81;;;35.36;23.29
37856;BME280;23694;43.274;26.924;2022-07-23T05:24:29;98988.66;;;35.30;22.92
37856;BME280;23694;43.274;26.924;2022-07-23T05:26:55;98995.66;;;35.16;23.44
37856;BME280;23694;43.274;26.924;2022-07-23T05:29:21;98994.19;;;34.12;24.44
37856;BME280;23694;43.274;26.924;2022-07-23T05:31:47;98990.53;;;33.19;25.78
37856;BME280;23694;43.274;26.924;2022-07-23T05:34:14;98988.47;;;32.14;27.44
37856;BME280;23694;43.274;26.924;2022-07-23T05:36:40;98982.19;;;31.57;28.72
37856;BME280;23694;43.274;26.924;2022-07-23T05:39:06;98986.19;;;31.07;29.87
37856;BME280;23694;43.274;26.924;2022-07-23T05:41:32;98988.56;;;30.92;30.66
37856;BME280;23694;43.274;26.924;2022-07-23T05:43:58;98984.91;;;30.63;31.27
37856;BME280;23694;43.274;26.924;2022-07-23T05:46:24;98987.09;;;30.13;31.75
37856;BME280;23694;43.274;26.924;2022-07-23T05:48:50;98988.72;;;29.65;32.83
37856;BME280;23694;43.274;26.924;2022-07-23T05:51:23;98983.13;;;29.24;33.55
37856;BME280;23694;43.274;26.924;2022-07-23T05:53:50;98988.13;;;29.02;34.28
37856;BME280;23694;43.274;26.924;2022-07-23T05:56:17;98987.31;;;29.01;35.10
37856;BME280;23694;43.274;26.924;2022-07-23T05:58:44;98984.91;;;29.12;35.06
37856;BME280;23694;43.274;26.924;2022-07-23T06:01:10;98992.78;;;29.13;34.84
37856;BME280;23694;43.274;26.924;2022-07-23T06:03:38;98995.78;;;29.23;34.78
37856;BME280;23694;43.274;26.924;2022-07-23T06:06:05;98999.03;;;29.32;34.73
37856;BME280;23694;43.274;26.924;2022-07-23T06:08:31;98993.91;;;29.24;35.07
37856;BME280;23694;43.274;26.924;2022-07-23T06:10:57;98997.25;;;29.62;34.06
37856;BME280;23694;43.274;26.924;2022-07-23T06:13:23;98990.34;;;30.03;33.41
37856;BME280;23694;43.274;26.924;2022-07-23T06:15:49;99005.78;;;30.14;32.91
37856;BME280;23694;43.274;26.924;2022-07-23T06:18:15;98999.53;;;30.14;31.66
37856;BME280;23694;43.274;26.924;2022-07-23T06:20:42;99004.03;;;30.20;32.19
37856;BME280;23694;43.274;26.924;2022-07-23T06:23:08;99008.59;;;30.19;32.09
37856;BME280;23694;43.274;26.924;2022-07-23T06:25:34;99002.94;;;30.09;32.59
37856;BME280;23694;43.274;26.924;2022-07-23T06:28:00;99004.13;;;29.95;33.01
37856;BME280;23694;43.274;26.924;2022-07-23T06:30:26;99010.72;;;29.99;32.40
37856;BME280;23694;43.274;26.924;2022-07-23T06:32:52;99008.94;;;30.11;31.54
37856;BME280;23694;43.274;26.924;2022-07-23T06:35:21;99003.75;;;30.10;32.63
37856;BME280;23694;43.274;26.924;2022-07-23T06:37:48;98991.97;;;30.34;31.91
37856;BME280;23694;43.274;26.924;2022-07-23T06:40:14;98992.91;;;30.70;32.10
37856;BME280;23694;43.274;26.924;2022-07-23T06:42:40;98994.44;;;30.66;32.40
37856;BME280;23694;43.274;26.924;2022-07-23T06:45:07;98995.94;;;30.62;31.54
37856;BME280;23694;43.274;26.924;2022-07-23T06:47:33;98998.34;;;30.51;31.69
37856;BME280;23694;43.274;26.924;2022-07-23T06:49:59;98992.56;;;30.78;30.39
37856;BME280;23694;43.274;26.924;2022-07-23T06:52:26;98989.50;;;30.86;31.48
37856;BME280;23694;43.274;26.924;2022-07-23T06:54:52;98995.63;;;31.05;31.81
37856;BME280;23694;43.274;26.924;2022-07-23T06:57:18;98996.78;;;30.74;32.00
37856;BME280;23694;43.274;26.924;2022-07-23T06:59:44;98999.25;;;30.99;30.63
37856;BME280;23694;43.274;26.924;2022-07-23T07:02:10;99002.44;;;30.96;31.70
37856;BME280;23694;43.274;26.924;2022-07-23T07:04:37;99001.59;;;30.72;32.15
37856;BME280;23694;43.274;26.924;2022-07-23T07:07:03;98997.16;;;30.89;32.24
37856;BME280;23694;43.274;26.924;2022-07-23T07:09:29;98999.50;;;30.85;31.61
37856;BME280;23694;43.274;26.924;2022-07-23T07:11:55;99009.72;;;31.07;30.82
37856;BME280;23694;43.274;26.924;2022-07-23T07:14:22;99003.78;;;31.28;30.08
37856;BME280;23694;43.274;26.924;2022-07-23T07:16:48;99001.78;;;31.24;30.91
37856;BME280;23694;43.274;26.924;2022-07-23T07:19:14;98997.41;;;31.34;30.94
37856;BME280;23694;43.274;26.924;2022-07-23T07:21:40;99005.03;;;31.49;30.19
37856;BME280;23694;43.274;26.924;2022-07-23T07:24:06;99005.44;;;31.69;29.59
37856;BME280;23694;43.274;26.924;2022-07-23T07:26:33;99001.41;;;31.95;29.39
37856;BME280;23694;43.274;26.924;2022-07-23T07:28:59;99006.53;;;32.08;28.14
37856;BME280;23694;43.274;26.924;2022-07-23T07:31:25;99001.25;;;32.59;27.86
37856;BME280;23694;43.274;26.924;2022-07-23T07:33:52;99003.94;;;32.59;26.60
37856;BME280;23694;43.274;26.924;2022-07-23T07:36:18;99003.22;;;32.97;27.17
37856;BME280;23694;43.274;26.924;2022-07-23T07:38:44;99002.97;;;32.98;26.81
37856;BME280;23694;43.274;26.924;2022-07-23T07:41:10;99005.34;;;33.12;25.25
37856;BME280;23694;43.274;26.924;2022-07-23T07:43:38;98999.91;;;33.28;23.64
37856;BME280;23694;43.274;26.924;2022-07-23T07:46:04;99006.81;;;33.36;23.03
37856;BME280;23694;43.274;26.924;2022-07-23T07:48:30;99009.66;;;33.68;23.67
37856;BME280;23694;43.274;26.924;2022-07-23T07:50:56;99004.88;;;33.75;22.98
37856;BME280;23694;43.274;26.924;2022-07-23T07:53:22;98997.09;;;33.62;23.15
37856;BME280;23694;43.274;26.924;2022-07-23T07:55:48;98995.06;;;33.91;22.98
37856;BME280;23694;43.274;26.924;2022-07-23T07:58:14;99005.78;;;34.02;22.05
37856;BME280;23694;43.274;26.924;2022-07-23T08:00:40;98999.59;;;33.85;21.57
37856;BME280;23694;43.274;26.924;2022-07-23T08:03:07;99002.72;;;33.77;21.41
37856;BME280;23694;43.274;26.924;2022-07-23T08:05:33;99003.09;;;33.64;21.58
37856;BME280;23694;43.274;26.924;2022-07-23T08:07:59;99006.84;;;33.19;22.05
37856;BME280;23694;43.274;26.924;2022-07-23T08:10:27;99001.41;;;33.58;22.01
37856;BME280;23694;43.274;26.924;2022-07-23T08:12:55;98996.44;;;33.16;22.56
37856;BME280;23694;43.274;26.924;2022-07-23T08:15:26;98998.19;;;33.61;22.09
37856;BME280;23694;43.274;26.924;2022-07-23T08:17:53;99008.72;;;33.57;21.63
37856;BME280;23694;43.274;26.924;2022-07-23T08:20:21;99008.03;;;33.45;22.25
37856;BME280;23694;43.274;26.924;2022-07-23T08:25:29;98996.78;;;33.36;22.37
37856;BME280;23694;43.274;26.924;2022-07-23T08:27:57;98990.34;;;33.43;21.95
37856;BME280;23694;43.274;26.924;2022-07-23T08:30:23;98992.97;;;32.82;22.42
37856;BME280;23694;43.274;26.924;2022-07-23T08:32:54;98994.66;;;33.22;22.02
37856;BME280;23694;43.274;26.924;2022-07-23T08:35:29;98992.50;;;33.62;22.20
37856;BME280;23694;43.274;26.924;2022-07-23T08:37:56;98997.97;;;34.11;21.12
37856;BME280;23694;43.274;26.924;2022-07-23T08:40:25;98992.22;;;34.08;20.57
37856;BME280;23694;43.274;26.924;2022-07-23T08:42:52;98993.69;;;33.50;21.85
37856;BME280;23694;43.274;26.924;2022-07-23T08:45:20;98991.72;;;34.11;21.16
37856;BME280;23694;43.274;26.924;2022-07-23T08:47:54;98998.34;;;33.93;20.43
37856;BME280;23694;43.274;26.924;2022-07-23T08:50:22;99001.25;;;33.86;20.76
37856;BME280;23694;43.274;26.924;2022-07-23T08:52:49;98999.94;;;33.72;20.68
37856;BME280;23694;43.274;26.924;2022-07-23T08:55:17;98999.00;;;33.39;21.68
37856;BME280;23694;43.274;26.924;2022-07-23T08:57:44;98998.00;;;33.46;21.83
37856;BME280;23694;43.274;26.924;2022-07-23T09:00:13;98987.81;;;33.58;21.50
37856;BME280;23694;43.274;26.924;2022-07-23T09:02:41;98994.19;;;34.12;21.60
37856;BME280;23694;43.274;26.924;2022-07-23T09:05:09;98992.16;;;33.81;21.45
37856;BME280;23694;43.274;26.924;2022-07-23T09:07:38;98989.00;;;34.11;21.04
37856;BME280;23694;43.274;26.924;2022-07-23T09:10:23;98998.16;;;34.53;20.79
37856;BME280;23694;43.274;26.924;2022-07-23T09:12:49;98984.66;;;35.01;21.21
37856;BME280;23694;43.274;26.924;2022-07-23T09:15:15;98990.53;;;35.24;20.37
37856;BME280;23694;43.274;26.924;2022-07-23T09:17:42;98994.19;;;34.12;21.70
37856;BME280;23694;43.274;26.924;2022-07-23T09:20:14;98981.31;;;33.59;22.63
37856;BME280;23694;43.274;26.924;2022-07-23T09:22:45;98987.19;;;33.51;22.38
37856;BME280;23694;43.274;26.924;2022-07-23T09:25:17;98985.00;;;34.18;21.69
37856;BME280;23694;43.274;26.924;2022-07-23T09:27:57;98991.06;;;34.25;21.99
37856;BME280;23694;43.274;26.924;2022-07-23T09:30:27;98990.69;;;34.44;21.04
37856;BME280;23694;43.274;26.924;2022-07-23T09:33:14;98989.41;;;34.24;21.81
37856;BME280;23694;43.274;26.924;2022-07-23T09:35:52;98985.47;;;34.10;21.36
37856;BME280;23694;43.274;26.924;2022-07-23T09:38:23;98990.66;;;34.39;21.71
37856;BME280;23694;43.274;26.924;2022-07-23T09:41:09;98982.03;;;34.20;21.62
37856;BME280;23694;43.274;26.924;2022-07-23T09:43:36;98992.44;;;34.01;22.49
37856;BME280;23694;43.274;26.924;2022-07-23T09:48:46;98967.38;;;33.50;22.25
37856;BME280;23694;43.274;26.924;2022-07-23T09:51:12;98970.22;;;34.09;21.86
37856;BME280;23694;43.274;26.924;2022-07-23T09:53:41;98956.81;;;34.51;22.14
37856;BME280;23694;43.274;26.924;2022-07-23T09:56:08;98957.91;;;34.87;21.49
37856;BME280;23694;43.274;26.924;2022-07-23T09:58:38;98957.25;;;34.75;21.58
37856;BME280;23694;43.274;26.924;2022-07-23T10:01:12;98956.72;;;34.78;21.47
37856;BME280;23694;43.274;26.924;2022-07-23T10:03:39;98956.16;;;34.76;22.12
37856;BME280;23694;43.274;26.924;2022-07-23T10:06:08;98951.13;;;34.90;21.58
37856;BME280;23694;43.274;26.924;2022-07-23T10:08:34;98949.28;;;35.06;21.74
37856;BME280;23694;43.274;26.924;2022-07-23T10:11:01;98946.56;;;35.06;21.25
37856;BME280;23694;43.274;26.924;2022-07-23T10:13:28;98943.28;;;34.99;21.80
37856;BME280;23694;43.274;26.924;2022-07-23T10:16:13;98950.00;;;33.95;22.16
37856;BME280;23694;43.274;26.924;2022-07-23T10:18:39;98940.63;;;34.40;21.85
37856;BME280;23694;43.274;26.924;2022-07-23T10:21:07;98938.47;;;34.74;21.73
37856;BME280;23694;43.274;26.924;2022-07-23T10:23:42;98931.34;;;35.10;21.71
37856;BME280;23694;43.274;26.924;2022-07-23T10:26:35;98931.88;;;35.64;20.59
37856;BME280;23694;43.274;26.924;2022-07-23T10:32:20;98923.72;;;35.59;20.61
37856;BME280;23694;43.274;26.924;2022-07-23T10:34:58;98925.22;;;35.97;20.20
37856;BME280;23694;43.274;26.924;2022-07-23T10:37:47;98926.97;;;35.61;20.23
37856;BME280;23694;43.274;26.924;2022-07-23T10:40:17;98920.28;;;35.26;21.21
37856;BME280;23694;43.274;26.924;2022-07-23T10:42:47;98916.41;;;35.12;21.45
37856;BME280;23694;43.274;26.924;2022-07-23T10:45:36;98912.41;;;35.25;20.64
37856;BME280;23694;43.274;26.924;2022-07-23T10:48:16;98910.56;;;35.36;21.40
37856;BME280;23694;43.274;26.924;2022-07-23T10:50:45;98907.06;;;35.45;20.33
37856;BME280;23694;43.274;26.924;2022-07-23T10:53:59;98910.03;;;35.44;20.31
37856;BME280;23694;43.274;26.924;2022-07-23T10:59:16;98891.22;;;34.85;21.59
37856;BME280;23694;43.274;26.924;2022-07-23T11:01:42;98890.31;;;35.21;21.33
37856;BME280;23694;43.274;26.924;2022-07-23T11:04:08;98887.75;;;35.62;20.96
37856;BME280;23694;43.274;26.924;2022-07-23T11:09:26;98884.09;;;36.49;20.90
37856;BME280;23694;43.274;26.924;2022-07-23T11:15:11;98885.59;;;35.69;20.75
37856;BME280;23694;43.274;26.924;2022-07-23T11:20:19;98882.56;;;35.55;21.41
37856;BME280;23694;43.274;26.924;2022-07-23T11:25:13;98866.59;;;34.64;21.44
37856;BME280;23694;43.274;26.924;2022-07-23T11:27:41;98869.88;;;34.67;21.55
37856;BME280;23694;43.274;26.924;2022-07-23T11:30:08;98871.41;;;34.94;21.58
37856;BME280;23694;43.274;26.924;2022-07-23T11:32:40;98871.53;;;35.15;21.19
37856;BME280;23694;43.274;26.924;2022-07-23T11:35:25;98866.44;;;35.34;21.06
37856;BME280;23694;43.274;26.924;2022-07-23T11:37:54;98870.28;;;35.43;21.16
37856;BME280;23694;43.274;26.924;2022-07-23T11:40:28;98855.88;;;35.52;20.86
37856;BME280;23694;43.274;26.924;2022-07-23T11:42:56;98865.00;;;35.16;21.62
37856;BME280;23694;43.274;26.924;2022-07-23T11:45:24;98866.03;;;35.10;21.50
37856;BME280;23694;43.274;26.924;2022-07-23T11:47:51;98865.56;;;35.28;20.71
37856;BME280;23694;43.274;26.924;2022-07-23T11:50:17;98856.63;;;35.33;20.78
37856;BME280;23694;43.274;26.924;2022-07-23T11:52:43;98854.66;;;35.23;21.36
37856;BME280;23694;43.274;26.924;2022-07-23T11:55:10;98855.47;;;35.23;20.67
37856;BME280;23694;43.274;26.924;2022-07-23T11:57:39;98857.13;;;35.24;21.10
37856;BME280;23694;43.274;26.924;2022-07-23T12:00:14;98854.47;;;35.45;20.77
37856;BME280;23694;43.274;26.924;2022-07-23T12:02:49;98848.53;;;35.58;21.45
37856;BME280;23694;43.274;26.924;2022-07-23T12:05:24;98842.63;;;35.86;20.50
37856;BME280;23694;43.274;26.924;2022-07-23T12:07:53;98844.53;;;36.06;20.35
37856;BME280;23694;43.274;26.924;2022-07-23T12:10:30;98843.97;;;36.04;20.64
37856;BME280;23694;43.274;26.924;2022-07-23T12:15:34;98842.88;;;36.26;20.58
37856;BME280;23694;43.274;26.924;2022-07-23T12:18:05;98842.06;;;36.15;20.22
37856;BME280;23694;43.274;26.924;2022-07-23T12:20:33;98834.13;;;35.78;20.54
37856;BME280;23694;43.274;26.924;2022-07-23T12:23:03;98840.34;;;35.63;20.58
37856;BME280;23694;43.274;26.924;2022-07-23T12:25:31;98826.97;;;35.46;20.97
37856;BME280;23694;43.274;26.924;2022-07-23T12:33:25;98825.03;;;34.74;21.94
37856;BME280;23694;43.274;26.924;2022-07-23T12:35:53;98814.88;;;35.12;21.40
37856;BME280;23694;43.274;26.924;2022-07-23T12:38:21;98823.16;;;35.42;21.16
37856;BME280;23694;43.274;26.924;2022-07-23T12:40:53;98822.38;;;35.67;21.12
37856;BME280;23694;43.274;26.924;2022-07-23T12:45:54;98820.63;;;35.15;21.19
37856;BME280;23694;43.274;26.924;2022-07-23T12:51:07;98820.91;;;35.24;21.23
37856;BME280;23694;43.274;26.924;2022-07-23T12:53:45;98821.22;;;35.33;21.24
37856;BME280;23694;43.274;26.924;2022-07-23T12:56:14;98824.50;;;35.35;21.00
37856;BME280;23694;43.274;26.924;2022-07-23T13:03:57;98807.69;;;36.19;21.05
37856;BME280;23694;43.274;26.924;2022-07-23T13:06:25;98808.53;;;36.30;20.48
37856;BME280;23694;43.274;26.924;2022-07-23T13:08:51;98807.44;;;36.15;20.20
37856;BME280;23694;43.274;26.924;2022-07-23T13:11:17;98809.91;;;35.81;20.58
37856;BME280;23694;43.274;26.924;2022-07-23T13:13:43;98815.81;;;35.48;21.16
37856;BME280;23694;43.274;26.924;2022-07-23T13:16:09;98802.47;;;35.46;20.87
37856;BME280;23694;43.274;26.924;2022-07-23T13:18:35;98806.00;;;35.52;20.94
37856;BME280;23694;43.274;26.924;2022-07-23T13:21:02;98803.09;;;35.84;21.06
37856;BME280;23694;43.274;26.924;2022-07-23T13:23:28;98799.00;;;36.02;20.61
37856;BME280;23694;43.274;26.924;2022-07-23T13:25:54;98792.16;;;36.19;20.51
37856;BME280;23694;43.274;26.924;2022-07-23T13:28:22;98788.34;;;36.36;20.44
37856;BME280;23694;43.274;26.924;2022-07-23T13:30:49;98792.41;;;36.54;20.31
37856;BME280;23694;43.274;26.924;2022-07-23T13:33:20;98793.72;;;36.66;20.29